Sumifukumaru No.5 — JD3058 — position and weather

sailwx.info

Track history (hours):
 
Tides and Currents Weather Stations Pressure Air Temp Water Temp Dewpoint Dewpoint Depression Visibility Wind Speed Wind Dir Waves Ship Positions

Sumifukumaru No.5

Last reported at 2015-Sep-03 03:33 UTC. Time now 2015-Sep-04 12:27 UTC.
Position N 35°05' E 139°38'.

Length 75 m; draft 4.4 m.

Type: Cargo ship. MMSI: 431001371.

Date/timePositionNaut miles runAvg speedWind from/ knotsBaromVisibWave heightAir tempDewpointWater temp
2015-Sep-03 03:33N 35°05' E 139°38'1111.2
2015-Sep-03 02:33N 35°14' E 139°46'1111.1
2015-Sep-03 01:33N 35°25' E 139°44'7 6.4
2015-Sep-03 00:31N 35°22' E 139°51'0 0.0
2015-Sep-02 23:31N 35°22' E 139°51'0 0.0
2015-Sep-02 22:32N 35°22' E 139°51'2 2.0
2015-Sep-02 21:32N 35°22' E 139°53'0 0.0
2015-Sep-02 20:32N 35°22' E 139°53'0 0.0
2015-Sep-02 19:32N 35°22' E 139°53'0 0.0
2015-Sep-02 18:26N 35°22' E 139°53'0 0.0
2015-Sep-02 17:29N 35°22' E 139°53'0 0.0
2015-Sep-02 16:32N 35°22' E 139°53'0 0.0
2015-Sep-02 15:32N 35°22' E 139°53'0 0.0
2015-Sep-02 14:32N 35°22' E 139°53'0 0.0
2015-Sep-02 13:29N 35°22' E 139°53'0 0.0
2015-Sep-02 12:29N 35°22' E 139°53'0 0.0
2015-Sep-02 11:32N 35°22' E 139°53'0 0.0
2015-Sep-02 10:32N 35°22' E 139°53'0 0.0
2015-Sep-02 09:32N 35°22' E 139°53'0 0.0
2015-Sep-02 08:32N 35°22' E 139°53'0 0.0
2015-Sep-02 07:32N 35°22' E 139°53'0 0.0
2015-Sep-02 06:32N 35°22' E 139°53'0 0.0
2015-Sep-02 05:32N 35°22' E 139°53'0 0.0
2015-Sep-02 02:29N 35°22' E 139°53'0 0.0
2015-Sep-02 01:26N 35°22' E 139°53'0 0.0
2015-Sep-02 00:26N 35°22' E 139°53'0 0.0
2015-Sep-01 23:32N 35°22' E 139°53'0 0.0
2015-Sep-01 22:26N 35°22' E 139°53'0 0.0
2015-Sep-01 21:32N 35°22' E 139°53'0 0.0
2015-Sep-01 20:26N 35°22' E 139°53'0 0.1
2015-Sep-01 19:33N 35°22' E 139°53'3 2.9
2015-Sep-01 18:32N 35°24' E 139°51'0 0.0
2015-Sep-01 17:32N 35°24' E 139°51'0 0.0
2015-Sep-01 16:26N 35°24' E 139°51'0 0.0
2015-Sep-01 15:25N 35°24' E 139°51'0 0.1
2015-Sep-01 14:32N 35°24' E 139°51'0 0.0
2015-Sep-01 13:31N 35°24' E 139°51'0 0.0
2015-Sep-01 12:26N 35°24' E 139°51'0 0.1
2015-Sep-01 11:29N 35°24' E 139°51'0 0.0
2015-Sep-01 10:31N 35°24' E 139°51'0 0.1
2015-Sep-01 09:31N 35°24' E 139°51'0 0.0
2015-Sep-01 08:32N 35°24' E 139°51'0 0.0
2015-Sep-01 07:32N 35°24' E 139°51'4 4.6
2015-Sep-01 06:33N 35°28' E 139°50'1212.3
2015-Sep-01 05:33N 35°38' E 139°59'3 2.2
2015-Sep-01 04:19N 35°41' E 139°58'0 0.0
2015-Sep-01 03:25N 35°41' E 139°58'0 0.0
2015-Sep-01 02:30N 35°41' E 139°58'0 0.0
2015-Sep-01 01:30N 35°41' E 139°58'0 0.0
2015-Sep-01 00:30N 35°41' E 139°58'0 0.0
2015-Aug-31 23:30N 35°41' E 139°58'0 0.0
2015-Aug-31 22:24N 35°41' E 139°58'0 0.0
2015-Aug-31 21:29N 35°41' E 139°58'0 0.0
2015-Aug-31 20:29N 35°41' E 139°58'0 0.0
2015-Aug-31 19:29N 35°41' E 139°58'0 0.0
2015-Aug-31 18:29N 35°41' E 139°58'0 0.0
2015-Aug-31 17:11N 35°41' E 139°58'0 0.0
2015-Aug-31 16:29N 35°41' E 139°58'0 0.0
2015-Aug-31 14:23N 35°41' E 139°58'0 0.0
2015-Aug-31 13:23N 35°41' E 139°58'0 0.0
2015-Aug-31 12:11N 35°41' E 139°58'0 0.0
2015-Aug-31 11:23N 35°41' E 139°58'0 0.0
2015-Aug-31 10:23N 35°41' E 139°58'0 0.0
2015-Aug-31 09:29N 35°41' E 139°58'0 0.0
2015-Aug-31 07:17N 35°41' E 139°58'0 0.0
2015-Aug-31 06:32N 35°41' E 139°58'0 0.0
2015-Aug-31 05:26N 35°41' E 139°58'0 0.0
2015-Aug-31 04:32N 35°41' E 139°58'0 0.0
2015-Aug-31 03:32N 35°41' E 139°58'0 0.0
2015-Aug-31 02:32N 35°41' E 139°58'0 0.0
2015-Aug-31 01:20N 35°41' E 139°58'0 0.0
2015-Aug-31 00:32N 35°41' E 139°58'0 0.0
2015-Aug-30 23:32N 35°41' E 139°58'0 0.0
2015-Aug-30 22:22N 35°41' E 139°58'0 0.0
2015-Aug-30 21:28N 35°41' E 139°58'0 0.0
2015-Aug-30 20:22N 35°41' E 139°58'0 0.0
2015-Aug-30 19:28N 35°41' E 139°58'0 0.0
2015-Aug-30 18:16N 35°41' E 139°58'0 0.0
2015-Aug-30 17:04N 35°41' E 139°58'0 0.0
2015-Aug-30 16:28N 35°41' E 139°58'0 0.0
2015-Aug-30 15:04N 35°41' E 139°58'0 0.0
2015-Aug-30 14:28N 35°41' E 139°58'0 0.0
2015-Aug-30 13:28N 35°41' E 139°58'0 0.0
2015-Aug-30 12:28N 35°41' E 139°58'0 0.0
2015-Aug-30 10:16N 35°41' E 139°58'0 0.0
2015-Aug-30 09:22N 35°41' E 139°58'0 0.0
2015-Aug-30 08:28N 35°41' E 139°58'0 0.0
2015-Aug-30 07:28N 35°41' E 139°58'0 0.0
2015-Aug-30 06:04N 35°41' E 139°58'0 0.0
2015-Aug-30 05:28N 35°41' E 139°58'0 0.0
2015-Aug-30 04:28N 35°41' E 139°58'0 0.0
2015-Aug-30 03:16N 35°41' E 139°58'0 0.0
2015-Aug-30 02:22N 35°41' E 139°58'0 0.0
2015-Aug-30 01:22N 35°41' E 139°58'0 0.0
2015-Aug-30 00:22N 35°41' E 139°58'0 0.0
2015-Aug-29 23:22N 35°41' E 139°58'0 0.0
2015-Aug-29 22:22N 35°41' E 139°58'0 0.0
2015-Aug-29 21:22N 35°41' E 139°58'0 0.0
2015-Aug-29 20:28N 35°41' E 139°58'0 0.0
2015-Aug-29 19:04N 35°41' E 139°58'0 0.0
2015-Aug-29 18:28N 35°41' E 139°58'0 0.0
2015-Aug-29 17:28N 35°41' E 139°58'0 0.0
2015-Aug-29 16:28N 35°41' E 139°58'0 0.0
2015-Aug-29 15:28N 35°41' E 139°58'0 0.0
2015-Aug-29 14:22N 35°41' E 139°58'0 0.0
2015-Aug-29 13:28N 35°41' E 139°58'0 0.0
2015-Aug-29 12:28N 35°41' E 139°58'0 0.0
2015-Aug-29 11:22N 35°41' E 139°58'0 0.0
2015-Aug-29 10:16N 35°41' E 139°58'0 0.0
2015-Aug-29 08:28N 35°41' E 139°58'0 0.0
2015-Aug-29 07:28N 35°41' E 139°58'0 0.0
2015-Aug-29 06:10N 35°41' E 139°58'0 0.0
2015-Aug-29 05:33N 35°41' E 139°58'0 0.0
2015-Aug-29 04:09N 35°41' E 139°58'0 0.0
2015-Aug-29 03:33N 35°41' E 139°58'0 0.0
2015-Aug-29 02:27N 35°41' E 139°58'0 0.0
2015-Aug-29 01:33N 35°41' E 139°58'0 0.0
2015-Aug-28 23:33N 35°41' E 139°58'0 0.0
2015-Aug-28 21:16N 35°41' E 139°58'0 0.0
2015-Aug-28 20:28N 35°41' E 139°58'0 0.0
2015-Aug-28 19:10N 35°41' E 139°58'0 0.0
2015-Aug-28 18:04N 35°41' E 139°58'0 0.0
2015-Aug-28 17:28N 35°41' E 139°58'0 0.0
2015-Aug-28 16:28N 35°41' E 139°58'0 0.0
2015-Aug-28 15:16N 35°41' E 139°58'0 0.0
2015-Aug-28 14:28N 35°41' E 139°58'0 0.0
2015-Aug-28 13:10N 35°41' E 139°58'0 0.0
2015-Aug-28 12:16N 35°41' E 139°58'0 0.0
2015-Aug-28 11:16N 35°41' E 139°58'0 0.0
2015-Aug-28 10:28N 35°41' E 139°58'0 0.0
2015-Aug-28 09:22N 35°41' E 139°58'0 0.0
2015-Aug-28 08:28N 35°41' E 139°58'0 0.0
2015-Aug-28 07:33N 35°41' E 139°58'0 0.0
2015-Aug-28 06:15N 35°41' E 139°58'2 2.9
2015-Aug-28 05:33N 35°39' E 139°59'1010.5
2015-Aug-28 04:34N 35°30' E 139°53'1111.0
2015-Aug-28 03:33N 35°21' E 139°45'1110.5
2015-Aug-28 02:31N 35°10' E 139°46'243 9.0
2015-Aug-26 23:32N 34°05' E 135°02'1311.7
2015-Aug-26 22:24N 34°18' E 135°04'1011.5
2015-Aug-26 21:33N 34°26' E 135°11'1212.0
2015-Aug-26 20:33N 34°35' E 135°21'5 2.4
2015-Aug-26 18:27N 34°35' E 135°27'0 0.0
2015-Aug-26 08:09N 34°35' E 135°27'0 0.3
2015-Aug-26 07:29N 34°34' E 135°27'0 0.0
2015-Aug-26 05:17N 34°34' E 135°27'0 0.0
2015-Aug-26 03:29N 34°34' E 135°27'0 0.0
2015-Aug-26 02:29N 34°34' E 135°27'0 0.0
2015-Aug-26 01:29N 34°34' E 135°27'0 0.0
2015-Aug-26 00:05N 34°34' E 135°27'0 0.0
2015-Aug-25 20:17N 34°34' E 135°27'0 0.0
2015-Aug-25 18:23N 34°34' E 135°27'0 0.1
2015-Aug-25 17:29N 34°34' E 135°27'0 0.0
2015-Aug-25 16:29N 34°34' E 135°27'0 0.0
2015-Aug-25 14:29N 34°34' E 135°27'0 0.0
2015-Aug-25 13:29N 34°34' E 135°27'0 0.0
2015-Aug-25 09:23N 34°34' E 135°27'0 0.0
2015-Aug-25 07:11N 34°34' E 135°27'0 0.1
2015-Aug-25 06:11N 34°34' E 135°27'0 0.0
2015-Aug-25 04:17N 34°34' E 135°27'0 0.0
2015-Aug-25 03:17N 34°34' E 135°27'0 0.0
2015-Aug-25 02:23N 34°34' E 135°27'0 0.1
2015-Aug-25 01:23N 34°34' E 135°27'0 0.0
2015-Aug-25 00:29N 34°34' E 135°27'0 0.0
2015-Aug-24 23:29N 34°34' E 135°27'0 0.0
2015-Aug-24 22:29N 34°34' E 135°27'0 0.0
2015-Aug-24 21:23N 34°34' E 135°27'0 0.0
2015-Aug-24 20:23N 34°34' E 135°27'0 0.0
2015-Aug-24 19:29N 34°34' E 135°27'0 0.0
2015-Aug-24 18:29N 34°34' E 135°27'0 0.0
2015-Aug-24 17:29N 34°34' E 135°27'0 0.0
2015-Aug-24 16:05N 34°34' E 135°27'0 0.1
2015-Aug-24 15:05N 34°34' E 135°27'0 0.0
2015-Aug-24 14:17N 34°34' E 135°27'0 0.0
2015-Aug-24 13:29N 34°34' E 135°27'0 0.0
2015-Aug-24 11:29N 34°34' E 135°27'0 0.0
2015-Aug-24 10:05N 34°34' E 135°27'0 0.0
2015-Aug-24 07:29N 34°34' E 135°27'0 0.0
2015-Aug-24 06:17N 34°34' E 135°27'  
Track history (hours):
 
Tides and Currents Weather Stations Pressure Air Temp Water Temp Dewpoint Dewpoint Depression Visibility Wind Speed Wind Dir Waves Ship Positions

Sumifukumaru No.5

Last reported at 2015-Sep-03 03:33 UTC. Time now 2015-Sep-04 12:27 UTC.
Position N 35°05' E 139°38'.

Length 75 m; draft 4.4 m.

Type: Cargo ship. MMSI: 431001371.

Date/timePositionNaut miles runAvg speedWind from/ knotsBaromVisibWave heightAir tempDewpointWater temp
2015-Sep-03 03:33N 35°05' E 139°38'1111.2
2015-Sep-03 02:33N 35°14' E 139°46'1111.1
2015-Sep-03 01:33N 35°25' E 139°44'7 6.4
2015-Sep-03 00:31N 35°22' E 139°51'0 0.0
2015-Sep-02 23:31N 35°22' E 139°51'0 0.0
2015-Sep-02 22:32N 35°22' E 139°51'2 2.0
2015-Sep-02 21:32N 35°22' E 139°53'0 0.0
2015-Sep-02 20:32N 35°22' E 139°53'0 0.0
2015-Sep-02 19:32N 35°22' E 139°53'0 0.0
2015-Sep-02 18:26N 35°22' E 139°53'0 0.0
2015-Sep-02 17:29N 35°22' E 139°53'0 0.0
2015-Sep-02 16:32N 35°22' E 139°53'0 0.0
2015-Sep-02 15:32N 35°22' E 139°53'0 0.0
2015-Sep-02 14:32N 35°22' E 139°53'0 0.0
2015-Sep-02 13:29N 35°22' E 139°53'0 0.0
2015-Sep-02 12:29N 35°22' E 139°53'0 0.0
2015-Sep-02 11:32N 35°22' E 139°53'0 0.0
2015-Sep-02 10:32N 35°22' E 139°53'0 0.0
2015-Sep-02 09:32N 35°22' E 139°53'0 0.0
2015-Sep-02 08:32N 35°22' E 139°53'0 0.0
2015-Sep-02 07:32N 35°22' E 139°53'0 0.0
2015-Sep-02 06:32N 35°22' E 139°53'0 0.0
2015-Sep-02 05:32N 35°22' E 139°53'0 0.0
2015-Sep-02 02:29N 35°22' E 139°53'0 0.0
2015-Sep-02 01:26N 35°22' E 139°53'0 0.0
2015-Sep-02 00:26N 35°22' E 139°53'0 0.0
2015-Sep-01 23:32N 35°22' E 139°53'0 0.0
2015-Sep-01 22:26N 35°22' E 139°53'0 0.0
2015-Sep-01 21:32N 35°22' E 139°53'0 0.0
2015-Sep-01 20:26N 35°22' E 139°53'0 0.1
2015-Sep-01 19:33N 35°22' E 139°53'3 2.9
2015-Sep-01 18:32N 35°24' E 139°51'0 0.0
2015-Sep-01 17:32N 35°24' E 139°51'0 0.0
2015-Sep-01 16:26N 35°24' E 139°51'0 0.0
2015-Sep-01 15:25N 35°24' E 139°51'0 0.1
2015-Sep-01 14:32N 35°24' E 139°51'0 0.0
2015-Sep-01 13:31N 35°24' E 139°51'0 0.0
2015-Sep-01 12:26N 35°24' E 139°51'0 0.1
2015-Sep-01 11:29N 35°24' E 139°51'0 0.0
2015-Sep-01 10:31N 35°24' E 139°51'0 0.1
2015-Sep-01 09:31N 35°24' E 139°51'0 0.0
2015-Sep-01 08:32N 35°24' E 139°51'0 0.0
2015-Sep-01 07:32N 35°24' E 139°51'4 4.6
2015-Sep-01 06:33N 35°28' E 139°50'1212.3
2015-Sep-01 05:33N 35°38' E 139°59'3 2.2
2015-Sep-01 04:19N 35°41' E 139°58'0 0.0
2015-Sep-01 03:25N 35°41' E 139°58'0 0.0
2015-Sep-01 02:30N 35°41' E 139°58'0 0.0
2015-Sep-01 01:30N 35°41' E 139°58'0 0.0
2015-Sep-01 00:30N 35°41' E 139°58'0 0.0
2015-Aug-31 23:30N 35°41' E 139°58'0 0.0
2015-Aug-31 22:24N 35°41' E 139°58'0 0.0
2015-Aug-31 21:29N 35°41' E 139°58'0 0.0
2015-Aug-31 20:29N 35°41' E 139°58'0 0.0
2015-Aug-31 19:29N 35°41' E 139°58'0 0.0
2015-Aug-31 18:29N 35°41' E 139°58'0 0.0
2015-Aug-31 17:11N 35°41' E 139°58'0 0.0
2015-Aug-31 16:29N 35°41' E 139°58'0 0.0
2015-Aug-31 14:23N 35°41' E 139°58'0 0.0
2015-Aug-31 13:23N 35°41' E 139°58'0 0.0
2015-Aug-31 12:11N 35°41' E 139°58'0 0.0
2015-Aug-31 11:23N 35°41' E 139°58'0 0.0
2015-Aug-31 10:23N 35°41' E 139°58'0 0.0
2015-Aug-31 09:29N 35°41' E 139°58'0 0.0
2015-Aug-31 07:17N 35°41' E 139°58'0 0.0
2015-Aug-31 06:32N 35°41' E 139°58'0 0.0
2015-Aug-31 05:26N 35°41' E 139°58'0 0.0
2015-Aug-31 04:32N 35°41' E 139°58'0 0.0
2015-Aug-31 03:32N 35°41' E 139°58'0 0.0
2015-Aug-31 02:32N 35°41' E 139°58'0 0.0
2015-Aug-31 01:20N 35°41' E 139°58'0 0.0
2015-Aug-31 00:32N 35°41' E 139°58'0 0.0
2015-Aug-30 23:32N 35°41' E 139°58'0 0.0
2015-Aug-30 22:22N 35°41' E 139°58'0 0.0
2015-Aug-30 21:28N 35°41' E 139°58'0 0.0
2015-Aug-30 20:22N 35°41' E 139°58'0 0.0
2015-Aug-30 19:28N 35°41' E 139°58'0 0.0
2015-Aug-30 18:16N 35°41' E 139°58'0 0.0
2015-Aug-30 17:04N 35°41' E 139°58'0 0.0
2015-Aug-30 16:28N 35°41' E 139°58'0 0.0
2015-Aug-30 15:04N 35°41' E 139°58'0 0.0
2015-Aug-30 14:28N 35°41' E 139°58'0 0.0
2015-Aug-30 13:28N 35°41' E 139°58'0 0.0
2015-Aug-30 12:28N 35°41' E 139°58'0 0.0
2015-Aug-30 10:16N 35°41' E 139°58'0 0.0
2015-Aug-30 09:22N 35°41' E 139°58'0 0.0
2015-Aug-30 08:28N 35°41' E 139°58'0 0.0
2015-Aug-30 07:28N 35°41' E 139°58'0 0.0
2015-Aug-30 06:04N 35°41' E 139°58'0 0.0
2015-Aug-30 05:28N 35°41' E 139°58'0 0.0
2015-Aug-30 04:28N 35°41' E 139°58'0 0.0
2015-Aug-30 03:16N 35°41' E 139°58'0 0.0
2015-Aug-30 02:22N 35°41' E 139°58'0 0.0
2015-Aug-30 01:22N 35°41' E 139°58'0 0.0
2015-Aug-30 00:22N 35°41' E 139°58'0 0.0
2015-Aug-29 23:22N 35°41' E 139°58'0 0.0
2015-Aug-29 22:22N 35°41' E 139°58'0 0.0
2015-Aug-29 21:22N 35°41' E 139°58'0 0.0
2015-Aug-29 20:28N 35°41' E 139°58'0 0.0
2015-Aug-29 19:04N 35°41' E 139°58'0 0.0
2015-Aug-29 18:28N 35°41' E 139°58'0 0.0
2015-Aug-29 17:28N 35°41' E 139°58'0 0.0
2015-Aug-29 16:28N 35°41' E 139°58'0 0.0
2015-Aug-29 15:28N 35°41' E 139°58'0 0.0
2015-Aug-29 14:22N 35°41' E 139°58'0 0.0
2015-Aug-29 13:28N 35°41' E 139°58'0 0.0
2015-Aug-29 12:28N 35°41' E 139°58'0 0.0
2015-Aug-29 11:22N 35°41' E 139°58'0 0.0
2015-Aug-29 10:16N 35°41' E 139°58'0 0.0
2015-Aug-29 08:28N 35°41' E 139°58'0 0.0
2015-Aug-29 07:28N 35°41' E 139°58'0 0.0
2015-Aug-29 06:10N 35°41' E 139°58'0 0.0
2015-Aug-29 05:33N 35°41' E 139°58'0 0.0
2015-Aug-29 04:09N 35°41' E 139°58'0 0.0
2015-Aug-29 03:33N 35°41' E 139°58'0 0.0
2015-Aug-29 02:27N 35°41' E 139°58'0 0.0
2015-Aug-29 01:33N 35°41' E 139°58'0 0.0
2015-Aug-28 23:33N 35°41' E 139°58'0 0.0
2015-Aug-28 21:16N 35°41' E 139°58'0 0.0
2015-Aug-28 20:28N 35°41' E 139°58'0 0.0
2015-Aug-28 19:10N 35°41' E 139°58'0 0.0
2015-Aug-28 18:04N 35°41' E 139°58'0 0.0
2015-Aug-28 17:28N 35°41' E 139°58'0 0.0
2015-Aug-28 16:28N 35°41' E 139°58'0 0.0
2015-Aug-28 15:16N 35°41' E 139°58'0 0.0
2015-Aug-28 14:28N 35°41' E 139°58'0 0.0
2015-Aug-28 13:10N 35°41' E 139°58'0 0.0
2015-Aug-28 12:16N 35°41' E 139°58'0 0.0
2015-Aug-28 11:16N 35°41' E 139°58'0 0.0
2015-Aug-28 10:28N 35°41' E 139°58'0 0.0
2015-Aug-28 09:22N 35°41' E 139°58'0 0.0
2015-Aug-28 08:28N 35°41' E 139°58'0 0.0
2015-Aug-28 07:33N 35°41' E 139°58'0 0.0
2015-Aug-28 06:15N 35°41' E 139°58'2 2.9
2015-Aug-28 05:33N 35°39' E 139°59'1010.5
2015-Aug-28 04:34N 35°30' E 139°53'1111.0
2015-Aug-28 03:33N 35°21' E 139°45'1110.5
2015-Aug-28 02:31N 35°10' E 139°46'243 9.0
2015-Aug-26 23:32N 34°05' E 135°02'1311.7
2015-Aug-26 22:24N 34°18' E 135°04'1011.5
2015-Aug-26 21:33N 34°26' E 135°11'1212.0
2015-Aug-26 20:33N 34°35' E 135°21'5 2.4
2015-Aug-26 18:27N 34°35' E 135°27'0 0.0
2015-Aug-26 08:09N 34°35' E 135°27'0 0.3
2015-Aug-26 07:29N 34°34' E 135°27'0 0.0
2015-Aug-26 05:17N 34°34' E 135°27'0 0.0
2015-Aug-26 03:29N 34°34' E 135°27'0 0.0
2015-Aug-26 02:29N 34°34' E 135°27'0 0.0
2015-Aug-26 01:29N 34°34' E 135°27'0 0.0
2015-Aug-26 00:05N 34°34' E 135°27'0 0.0
2015-Aug-25 20:17N 34°34' E 135°27'0 0.0
2015-Aug-25 18:23N 34°34' E 135°27'0 0.1
2015-Aug-25 17:29N 34°34' E 135°27'0 0.0
2015-Aug-25 16:29N 34°34' E 135°27'0 0.0
2015-Aug-25 14:29N 34°34' E 135°27'0 0.0
2015-Aug-25 13:29N 34°34' E 135°27'0 0.0
2015-Aug-25 09:23N 34°34' E 135°27'0 0.0
2015-Aug-25 07:11N 34°34' E 135°27'0 0.1
2015-Aug-25 06:11N 34°34' E 135°27'0 0.0
2015-Aug-25 04:17N 34°34' E 135°27'0 0.0
2015-Aug-25 03:17N 34°34' E 135°27'0 0.0
2015-Aug-25 02:23N 34°34' E 135°27'0 0.1
2015-Aug-25 01:23N 34°34' E 135°27'0 0.0
2015-Aug-25 00:29N 34°34' E 135°27'0 0.0
2015-Aug-24 23:29N 34°34' E 135°27'0 0.0
2015-Aug-24 22:29N 34°34' E 135°27'0 0.0
2015-Aug-24 21:23N 34°34' E 135°27'0 0.0
2015-Aug-24 20:23N 34°34' E 135°27'0 0.0
2015-Aug-24 19:29N 34°34' E 135°27'0 0.0
2015-Aug-24 18:29N 34°34' E 135°27'0 0.0
2015-Aug-24 17:29N 34°34' E 135°27'0 0.0
2015-Aug-24 16:05N 34°34' E 135°27'0 0.1
2015-Aug-24 15:05N 34°34' E 135°27'0 0.0
2015-Aug-24 14:17N 34°34' E 135°27'0 0.0
2015-Aug-24 13:29N 34°34' E 135°27'0 0.0
2015-Aug-24 11:29N 34°34' E 135°27'0 0.0
2015-Aug-24 10:05N 34°34' E 135°27'0 0.0
2015-Aug-24 07:29N 34°34' E 135°27'0 0.0
2015-Aug-24 06:17N 34°34' E 135°27'  

Dump ship's entire track history